createdAt,value
2019-02-22T00:00:38.909Z,9.30
2019-02-22T00:03:08.100Z,9.30
2019-02-22T00:05:37.293Z,9.30
2019-02-22T00:08:06.521Z,9.30
2019-02-22T00:10:35.774Z,9.20
2019-02-22T00:13:04.906Z,9.20
2019-02-22T00:15:36.258Z,9.20
2019-02-22T00:18:05.090Z,9.10
2019-02-22T00:20:34.171Z,9.20
2019-02-22T00:23:03.410Z,9.20
2019-02-22T00:25:32.593Z,9.30
2019-02-22T00:28:01.806Z,9.20
2019-02-22T00:30:30.981Z,9.30
2019-02-22T00:33:00.358Z,9.40
2019-02-22T00:35:29.590Z,9.40
2019-02-22T00:37:58.977Z,9.40
2019-02-22T00:43:15.169Z,9.40
2019-02-22T00:45:44.326Z,9.50
2019-02-22T00:48:13.478Z,9.50
2019-02-22T00:50:42.691Z,9.50
2019-02-22T00:53:11.825Z,9.50
2019-02-22T00:55:40.935Z,9.50
2019-02-22T00:58:10.354Z,9.50
2019-02-22T01:00:39.489Z,9.50
2019-02-22T01:03:08.565Z,9.50
2019-02-22T01:05:38.089Z,9.50
2019-02-22T01:08:07.183Z,9.60
2019-02-22T01:10:36.287Z,9.50
2019-02-22T01:13:05.685Z,9.60
2019-02-22T01:15:34.816Z,9.50
2019-02-22T01:18:03.984Z,9.50
2019-02-22T01:20:34.246Z,9.40
2019-02-22T01:23:03.701Z,9.40
2019-02-22T01:25:33.238Z,9.40
2019-02-22T01:28:02.408Z,9.40
2019-02-22T01:30:31.563Z,9.40
2019-02-22T01:33:00.728Z,9.40
2019-02-22T01:35:29.837Z,9.40
2019-02-22T01:37:59.282Z,9.40
2019-02-22T01:40:28.399Z,9.40
2019-02-22T01:42:57.532Z,9.40
2019-02-22T01:45:26.625Z,9.40
2019-02-22T01:47:55.827Z,9.40
2019-02-22T01:50:25.455Z,9.50
2019-02-22T01:52:54.575Z,9.40
2019-02-22T01:55:23.730Z,9.50
2019-02-22T01:57:52.825Z,9.50
2019-02-22T02:00:21.985Z,9.60
2019-02-22T02:02:51.165Z,9.70
2019-02-22T02:05:20.317Z,9.80
2019-02-22T02:07:49.415Z,9.80
2019-02-22T02:10:18.476Z,9.70
2019-02-22T02:12:47.969Z,9.70
2019-02-22T02:15:17.154Z,9.70
2019-02-22T02:17:46.621Z,9.70
2019-02-22T02:20:15.864Z,9.60
2019-02-22T02:22:45.041Z,9.60
2019-02-22T02:25:14.410Z,9.50
2019-02-22T02:27:43.654Z,9.50
2019-02-22T02:30:12.826Z,9.50
2019-02-22T02:32:41.924Z,9.50
2019-02-22T02:35:11.243Z,9.40
2019-02-22T02:37:40.334Z,9.40
2019-02-22T02:40:09.478Z,9.40
2019-02-22T02:42:38.557Z,9.30
2019-02-22T02:45:07.621Z,9.30
2019-02-22T02:47:36.792Z,9.40
2019-02-22T02:50:06.115Z,9.50
2019-02-22T02:52:35.213Z,9.50
2019-02-22T02:55:04.406Z,9.50
2019-02-22T02:57:33.901Z,9.40
2019-02-22T03:00:04.768Z,9.40
2019-02-22T03:02:34.189Z,9.40
2019-02-22T03:05:03.615Z,9.30
2019-02-22T03:07:41.558Z,9.30
2019-02-22T03:10:10.736Z,9.30
2019-02-22T03:12:41.685Z,9.40
2019-02-22T03:15:11.952Z,9.40
2019-02-22T03:17:41.766Z,9.40
2019-02-22T03:20:10.932Z,9.50
2019-02-22T03:22:40.303Z,9.50
2019-02-22T03:25:09.530Z,9.50
2019-02-22T03:27:38.929Z,9.50
2019-02-22T03:30:08.674Z,9.70
2019-02-22T03:32:37.775Z,9.70
2019-02-22T03:35:06.931Z,9.80
2019-02-22T03:37:36.134Z,9.80
2019-02-22T03:40:05.863Z,9.70
2019-02-22T03:42:35.073Z,9.70
2019-02-22T03:45:04.716Z,9.70
2019-02-22T03:47:35.388Z,9.70
2019-02-22T03:50:04.917Z,9.70
2019-02-22T03:52:38.109Z,9.70
2019-02-22T03:55:07.333Z,9.70
2019-02-22T03:57:38.077Z,9.70
2019-02-22T04:00:07.769Z,9.70
2019-02-22T04:02:36.888Z,9.70
2019-02-22T04:05:06.309Z,9.70
2019-02-22T04:07:35.569Z,9.70
2019-02-22T04:10:04.797Z,9.80
2019-02-22T04:12:34.270Z,9.80
2019-02-22T04:15:03.470Z,9.80
2019-02-22T04:17:32.842Z,9.80
2019-02-22T04:20:02.393Z,9.80
2019-02-22T04:22:31.757Z,9.80
2019-02-22T04:25:01.112Z,9.80
2019-02-22T04:27:30.265Z,9.80
2019-02-22T04:29:59.344Z,9.80
2019-02-22T04:32:28.443Z,9.80
2019-02-22T04:34:57.560Z,9.80
2019-02-22T04:37:26.753Z,9.80
2019-02-22T04:39:55.896Z,9.80
2019-02-22T04:42:25.169Z,9.80
2019-02-22T04:44:54.269Z,9.80
2019-02-22T04:47:23.505Z,9.80
2019-02-22T04:49:52.639Z,9.80
2019-02-22T04:52:21.708Z,9.70
2019-02-22T04:54:50.778Z,9.70
2019-02-22T04:57:20.220Z,9.80
2019-02-22T04:59:49.406Z,9.80
2019-02-22T05:02:20.046Z,9.80
2019-02-22T05:04:49.029Z,9.80
2019-02-22T05:07:18.224Z,9.80
2019-02-22T05:09:47.454Z,9.80
2019-02-22T05:12:16.697Z,9.80
2019-02-22T05:14:45.792Z,9.80
2019-02-22T05:17:14.935Z,9.80
2019-02-22T05:19:44.083Z,9.80
2019-02-22T05:22:13.165Z,9.80
2019-02-22T05:24:42.253Z,9.80
2019-02-22T05:27:11.365Z,9.70
2019-02-22T05:29:40.462Z,9.70
2019-02-22T05:32:10.501Z,9.70
2019-02-22T05:34:39.614Z,9.70
2019-02-22T05:37:08.733Z,9.70
2019-02-22T05:39:37.844Z,9.80
2019-02-22T05:42:06.512Z,9.80
2019-02-22T05:44:35.602Z,9.80
2019-02-22T05:47:04.928Z,9.80
2019-02-22T05:49:35.563Z,9.80
2019-02-22T05:52:04.747Z,9.80
2019-02-22T05:54:34.244Z,9.80
2019-02-22T05:57:03.874Z,9.80
2019-02-22T05:59:33.388Z,9.80
2019-02-22T06:02:02.493Z,9.80
2019-02-22T06:04:33.516Z,9.80
2019-02-22T06:07:02.682Z,9.80
2019-02-22T06:09:32.761Z,9.70
2019-02-22T06:12:01.940Z,9.70
2019-02-22T06:14:31.421Z,9.70
2019-02-22T06:17:00.517Z,9.70
2019-02-22T06:19:29.648Z,9.70
2019-02-22T06:21:58.735Z,9.70
2019-02-22T06:24:27.900Z,9.70
2019-02-22T06:26:57.022Z,9.70
2019-02-22T06:29:26.209Z,9.70
2019-02-22T06:31:55.595Z,9.70
2019-02-22T06:34:24.776Z,9.70
2019-02-22T06:37:01.853Z,9.70
2019-02-22T06:39:25.040Z,9.70
2019-02-22T06:41:54.179Z,9.70
2019-02-22T06:44:23.338Z,9.70
2019-02-22T06:46:52.423Z,9.70
2019-02-22T06:49:21.557Z,9.70
2019-02-22T06:51:51.010Z,9.70
2019-02-22T06:54:20.182Z,9.70
2019-02-22T06:56:49.339Z,9.70
2019-02-22T06:59:18.525Z,9.70
2019-02-22T07:01:50.004Z,9.70
2019-02-22T07:04:18.562Z,9.70
2019-02-22T07:06:47.881Z,9.70
2019-02-22T07:09:17.272Z,9.80
2019-02-22T07:12:05.519Z,9.80
2019-02-22T07:14:34.889Z,9.90
2019-02-22T07:17:03.977Z,9.90
2019-02-22T07:19:33.081Z,10.00
2019-02-22T07:22:02.166Z,10.10
2019-02-22T07:24:31.337Z,10.10
2019-02-22T07:27:00.484Z,10.20
2019-02-22T07:29:30.606Z,10.20
2019-02-22T07:32:05.774Z,10.20
2019-02-22T07:34:31.219Z,10.20
2019-02-22T07:37:00.344Z,10.20
2019-02-22T07:39:29.391Z,10.20
2019-02-22T07:41:58.596Z,10.30
2019-02-22T07:44:28.203Z,10.30
2019-02-22T07:46:57.307Z,10.30
2019-02-22T07:49:27.686Z,10.30
2019-02-22T07:51:57.054Z,10.40
2019-02-22T07:54:26.642Z,10.40
2019-02-22T07:56:56.099Z,10.30
2019-02-22T07:59:25.962Z,10.40
2019-02-22T08:01:55.034Z,10.40
2019-02-22T08:04:24.359Z,10.40
2019-02-22T08:06:53.479Z,10.40
2019-02-22T08:09:22.599Z,10.40
2019-02-22T08:11:51.957Z,10.40
2019-02-22T08:14:21.246Z,10.40
2019-02-22T08:16:50.293Z,10.40
2019-02-22T08:19:19.365Z,10.40
2019-02-22T08:21:48.536Z,10.50
2019-02-22T08:24:18.225Z,10.60
2019-02-22T08:26:47.697Z,10.60
2019-02-22T08:29:16.797Z,10.60
2019-02-22T08:31:45.883Z,10.60
2019-02-22T08:34:15.172Z,10.60
2019-02-22T08:36:44.642Z,10.70
2019-02-22T08:39:14.066Z,10.70
2019-02-22T08:41:44.170Z,10.70
2019-02-22T08:44:13.570Z,10.70
2019-02-22T08:46:42.885Z,10.80
2019-02-22T08:49:12.128Z,10.80
2019-02-22T08:51:41.632Z,10.90
2019-02-22T08:54:10.714Z,11.00
2019-02-22T08:56:39.856Z,11.00
2019-02-22T08:59:08.916Z,11.10
2019-02-22T09:01:38.314Z,11.10
2019-02-22T09:04:07.729Z,11.30
2019-02-22T09:06:37.473Z,11.40
2019-02-22T09:09:06.722Z,11.40
2019-02-22T09:11:36.763Z,11.50
2019-02-22T09:14:06.329Z,11.80
2019-02-22T09:16:35.672Z,11.90
2019-02-22T09:19:05.096Z,11.90
2019-02-22T09:21:34.517Z,11.90
2019-02-22T09:24:04.202Z,12.00
2019-02-22T09:26:33.750Z,12.00
2019-02-22T09:29:03.235Z,12.20
2019-02-22T09:31:32.629Z,12.40
2019-02-22T09:34:01.806Z,12.50
2019-02-22T09:36:31.007Z,12.70
2019-02-22T09:39:00.135Z,12.90
2019-02-22T09:41:29.255Z,12.90
2019-02-22T09:43:58.278Z,12.70
2019-02-22T09:46:27.391Z,12.60
2019-02-22T09:48:56.494Z,12.60
2019-02-22T09:51:25.597Z,12.60
2019-02-22T09:53:54.714Z,12.50
2019-02-22T09:56:23.798Z,12.60
2019-02-22T09:58:53.012Z,12.70
2019-02-22T10:01:22.116Z,12.80
2019-02-22T10:03:51.217Z,12.90
2019-02-22T10:06:20.384Z,13.00
2019-02-22T10:08:49.448Z,12.80
2019-02-22T10:11:18.610Z,12.70
2019-02-22T10:13:48.163Z,12.50
2019-02-22T10:16:17.337Z,12.40
2019-02-22T10:18:46.434Z,12.50
2019-02-22T10:21:15.514Z,12.70
2019-02-22T10:23:44.785Z,12.80
2019-02-22T10:26:13.877Z,12.80
2019-02-22T10:28:42.995Z,12.80
2019-02-22T10:31:12.139Z,12.70
2019-02-22T10:33:41.226Z,12.60
2019-02-22T10:36:10.300Z,12.70
2019-02-22T10:38:39.610Z,12.70
2019-02-22T10:41:08.991Z,12.80
2019-02-22T10:43:38.344Z,12.80
2019-02-22T10:46:07.421Z,12.70
2019-02-22T10:48:36.500Z,12.60
2019-02-22T10:51:05.746Z,12.50
2019-02-22T10:53:34.805Z,12.50
2019-02-22T10:56:03.926Z,12.60
2019-02-22T10:58:32.983Z,12.60
2019-02-22T11:01:02.183Z,12.50
2019-02-22T11:03:31.396Z,12.40
2019-02-22T11:06:00.515Z,12.20
2019-02-22T11:08:29.698Z,12.20
2019-02-22T11:10:59.258Z,12.10
2019-02-22T11:13:28.378Z,11.90
2019-02-22T11:15:57.536Z,11.80
2019-02-22T11:18:26.566Z,11.70
2019-02-22T11:20:55.910Z,11.60
2019-02-22T11:23:25.070Z,11.60
2019-02-22T11:25:54.586Z,11.60
2019-02-22T11:28:23.673Z,11.70
2019-02-22T11:30:53.413Z,11.60
2019-02-22T11:33:22.585Z,11.60
2019-02-22T11:35:51.681Z,11.60
2019-02-22T11:38:20.785Z,11.60
2019-02-22T11:40:50.485Z,11.50
2019-02-22T11:43:19.545Z,11.40
2019-02-22T11:45:49.973Z,11.40
2019-02-22T11:48:19.226Z,11.30
2019-02-22T11:50:48.948Z,11.30
2019-02-22T11:53:18.053Z,11.30
2019-02-22T11:55:47.322Z,11.30
2019-02-22T11:58:17.194Z,11.40
2019-02-22T12:00:46.245Z,11.40
2019-02-22T12:03:24.340Z,11.50
2019-02-22T12:05:46.640Z,11.50
2019-02-22T12:08:15.714Z,11.50
2019-02-22T12:10:44.824Z,11.50
2019-02-22T12:13:13.929Z,11.50
2019-02-22T12:15:43.417Z,11.50
2019-02-22T12:18:12.537Z,11.50
2019-02-22T12:20:41.673Z,11.60
2019-02-22T12:23:10.869Z,11.60
2019-02-22T12:25:39.966Z,11.70
2019-02-22T12:28:09.195Z,11.60
2019-02-22T12:30:38.367Z,11.60
2019-02-22T12:33:07.541Z,11.60
2019-02-22T12:35:36.921Z,11.70
2019-02-22T12:38:06.002Z,11.70
2019-02-22T12:40:36.661Z,11.80
2019-02-22T12:43:06.176Z,11.80
2019-02-22T12:45:35.770Z,11.90
2019-02-22T12:48:04.873Z,11.90
2019-02-22T12:50:34.022Z,11.80
2019-02-22T12:53:03.274Z,11.80
2019-02-22T12:55:32.693Z,11.70
2019-02-22T12:58:02.152Z,11.70
2019-02-22T13:00:31.321Z,11.70
2019-02-22T13:03:02.256Z,11.70
2019-02-22T13:05:31.790Z,11.70
2019-02-22T13:08:01.423Z,11.80
2019-02-22T13:10:30.621Z,11.80
2019-02-22T13:12:59.700Z,11.80
2019-02-22T13:15:28.786Z,11.90
2019-02-22T13:17:57.931Z,11.80
2019-02-22T13:20:26.982Z,11.80
2019-02-22T13:22:56.102Z,11.80
2019-02-22T13:25:25.214Z,11.70
2019-02-22T13:27:54.277Z,11.70
2019-02-22T13:30:23.417Z,11.70
2019-02-22T13:32:52.574Z,11.80
2019-02-22T13:35:21.706Z,11.70
2019-02-22T13:37:51.046Z,11.60
2019-02-22T13:40:20.229Z,11.60
2019-02-22T13:42:49.323Z,11.60
2019-02-22T13:45:26.485Z,11.50
2019-02-22T13:47:49.633Z,11.50
2019-02-22T13:50:19.213Z,11.40
2019-02-22T13:52:48.277Z,11.40
2019-02-22T13:55:17.361Z,11.40
2019-02-22T13:57:47.122Z,11.40
2019-02-22T14:00:17.445Z,11.40
2019-02-22T14:02:46.590Z,11.50
2019-02-22T14:05:15.842Z,11.50
2019-02-22T14:07:54.543Z,11.50
2019-02-22T14:10:23.906Z,11.50
2019-02-22T14:12:53.002Z,11.60
2019-02-22T14:15:22.375Z,11.60
2019-02-22T14:17:51.656Z,11.60
2019-02-22T14:20:20.705Z,11.70
2019-02-22T14:22:50.576Z,11.80
2019-02-22T14:25:19.770Z,11.70
2019-02-22T14:27:48.966Z,11.70
2019-02-22T14:30:18.453Z,11.60
2019-02-22T14:32:47.518Z,11.50
2019-02-22T14:35:16.810Z,11.50
2019-02-22T14:37:46.260Z,11.50
2019-02-22T14:40:15.541Z,11.50
2019-02-22T14:42:44.642Z,11.50
2019-02-22T14:45:13.838Z,11.60
2019-02-22T14:47:42.940Z,11.60
2019-02-22T14:50:13.780Z,11.60
2019-02-22T14:52:42.898Z,11.60
2019-02-22T14:55:12.211Z,11.50
2019-02-22T14:57:41.317Z,11.50
2019-02-22T15:00:12.887Z,11.50
2019-02-22T15:02:42.025Z,11.40
2019-02-22T15:05:11.382Z,11.40
2019-02-22T15:07:40.448Z,11.40
2019-02-22T15:10:10.128Z,11.50
2019-02-22T15:12:39.476Z,11.40
2019-02-22T15:15:09.269Z,11.40
2019-02-22T15:17:47.536Z,11.40
2019-02-22T15:20:16.913Z,11.40
2019-02-22T15:22:46.002Z,11.40
2019-02-22T15:25:15.106Z,11.30
2019-02-22T15:27:44.301Z,11.40
2019-02-22T15:30:13.632Z,11.30
2019-02-22T15:32:42.700Z,11.30
2019-02-22T15:35:13.065Z,11.20
2019-02-22T15:37:43.304Z,11.20
2019-02-22T15:40:12.772Z,11.20
2019-02-22T15:42:42.035Z,11.10
2019-02-22T15:45:12.310Z,11.10
2019-02-22T15:47:41.546Z,11.10
2019-02-22T15:50:12.744Z,11.00
2019-02-22T15:52:41.862Z,11.00
2019-02-22T15:55:11.398Z,10.90
2019-02-22T15:57:40.420Z,10.90
2019-02-22T16:00:13.025Z,10.90
2019-02-22T16:02:42.497Z,10.90
2019-02-22T16:05:30.628Z,10.90
2019-02-22T16:07:59.730Z,10.90
2019-02-22T16:10:28.817Z,10.90
2019-02-22T16:12:58.021Z,10.80
2019-02-22T16:15:27.392Z,10.80
2019-02-22T16:17:56.457Z,10.80
2019-02-22T16:20:25.550Z,10.70
2019-02-22T16:22:54.795Z,10.70
2019-02-22T16:25:23.852Z,10.60
2019-02-22T16:27:52.937Z,10.50
2019-02-22T16:30:23.405Z,10.40
2019-02-22T16:32:52.533Z,10.30
2019-02-22T16:35:21.659Z,10.20
2019-02-22T16:37:50.798Z,10.10
2019-02-22T16:40:20.051Z,10.00
2019-02-22T16:42:49.141Z,9.90
2019-02-22T16:45:18.481Z,9.80
2019-02-22T16:47:47.588Z,9.70
2019-02-22T16:50:16.646Z,9.60
2019-02-22T16:52:45.761Z,9.60
2019-02-22T16:55:15.189Z,9.50
2019-02-22T16:57:44.235Z,9.50
2019-02-22T17:00:14.190Z,9.40
2019-02-22T17:02:43.308Z,9.40
2019-02-22T17:05:13.795Z,9.30
2019-02-22T17:07:42.896Z,9.30
2019-02-22T17:10:12.261Z,9.20
2019-02-22T17:12:41.396Z,9.20
2019-02-22T17:15:10.692Z,9.10
2019-02-22T17:17:39.842Z,9.10
2019-02-22T17:20:09.583Z,9.10
2019-02-22T17:22:38.673Z,9.00
2019-02-22T17:25:09.332Z,9.00
2019-02-22T17:27:38.470Z,9.00
2019-02-22T17:30:09.132Z,8.90
2019-02-22T17:32:38.334Z,8.90
2019-02-22T17:35:07.401Z,8.80
2019-02-22T17:37:36.534Z,8.80
2019-02-22T17:40:07.460Z,8.70
2019-02-22T17:42:36.769Z,8.70
2019-02-22T17:45:06.049Z,8.60
2019-02-22T17:47:36.693Z,8.50
2019-02-22T17:50:08.137Z,8.50
2019-02-22T17:52:37.453Z,8.40
2019-02-22T17:55:09.319Z,8.30
2019-02-22T17:57:40.667Z,8.20
2019-02-22T18:00:15.131Z,8.10
2019-02-22T18:02:46.310Z,8.10
2019-02-22T18:05:17.346Z,8.10
2019-02-22T18:07:46.945Z,8.00
2019-02-22T18:10:18.356Z,8.00
2019-02-22T18:12:47.444Z,8.00
2019-02-22T18:15:16.858Z,7.90
2019-02-22T18:17:45.945Z,7.90
2019-02-22T18:20:15.114Z,7.90
2019-02-22T18:22:44.288Z,7.80
2019-02-22T18:25:13.386Z,7.80
2019-02-22T18:27:42.844Z,7.80
2019-02-22T18:30:12.549Z,7.70
2019-02-22T18:32:44.041Z,7.70
2019-02-22T18:35:13.385Z,7.60
2019-02-22T18:37:42.783Z,7.60
2019-02-22T18:40:12.958Z,7.50
2019-02-22T18:42:42.301Z,7.50
2019-02-22T18:45:11.771Z,7.50
2019-02-22T18:47:40.860Z,7.40
2019-02-22T18:50:10.212Z,7.40
2019-02-22T18:52:39.278Z,7.30
2019-02-22T18:55:08.637Z,7.20
2019-02-22T18:57:37.712Z,7.20
2019-02-22T19:00:10.050Z,7.10
2019-02-22T19:02:39.141Z,7.00
2019-02-22T19:05:08.776Z,6.90
2019-02-22T19:07:38.173Z,6.80
2019-02-22T19:10:08.442Z,6.80
2019-02-22T19:12:39.209Z,6.80
2019-02-22T19:15:10.216Z,6.80
2019-02-22T19:17:39.257Z,6.80
2019-02-22T19:20:10.524Z,6.80
2019-02-22T19:22:39.657Z,6.80
2019-02-22T19:25:08.807Z,6.80
2019-02-22T19:27:38.215Z,6.70
2019-02-22T19:30:09.864Z,6.70
2019-02-22T19:32:38.981Z,6.70
2019-02-22T19:35:08.085Z,6.60
2019-02-22T19:37:37.669Z,6.60
2019-02-22T19:40:09.545Z,6.50
2019-02-22T19:42:38.612Z,6.50
2019-02-22T19:45:08.179Z,6.50
2019-02-22T19:47:41.858Z,6.40
2019-02-22T19:50:09.945Z,6.40
2019-02-22T19:52:39.015Z,6.40
2019-02-22T19:55:10.906Z,6.40
2019-02-22T19:57:40.424Z,6.30
2019-02-22T20:00:12.113Z,6.30
2019-02-22T20:02:41.200Z,6.20
2019-02-22T20:05:10.495Z,6.20
2019-02-22T20:07:39.989Z,6.10
2019-02-22T20:10:17.846Z,6.10
2019-02-22T20:12:41.853Z,6.10
2019-02-22T20:15:12.486Z,6.10
2019-02-22T20:17:52.633Z,6.20
2019-02-22T20:20:13.517Z,6.10
2019-02-22T20:22:42.613Z,6.10
2019-02-22T20:25:11.819Z,6.00
2019-02-22T20:27:40.933Z,6.00
2019-02-22T20:30:12.468Z,6.00
2019-02-22T20:32:41.634Z,6.00
2019-02-22T20:35:13.054Z,6.00
2019-02-22T20:37:51.695Z,6.00
2019-02-22T20:40:13.002Z,6.00
2019-02-22T20:42:42.090Z,6.00
2019-02-22T20:45:11.388Z,6.00
2019-02-22T20:47:40.505Z,6.00
2019-02-22T20:50:10.280Z,6.00
2019-02-22T20:52:39.305Z,6.00
2019-02-22T20:55:08.901Z,6.00
2019-02-22T20:57:38.324Z,5.90
2019-02-22T21:00:10.371Z,5.90
2019-02-22T21:02:39.492Z,5.90
2019-02-22T21:05:09.466Z,6.00
2019-02-22T21:07:38.951Z,6.00
2019-02-22T21:10:10.559Z,6.00
2019-02-22T21:12:41.279Z,5.90
2019-02-22T21:15:11.366Z,5.90
2019-02-22T21:17:41.388Z,5.80
2019-02-22T21:20:11.328Z,5.80
2019-02-22T21:22:40.489Z,5.80
2019-02-22T21:25:10.044Z,5.80
2019-02-22T21:27:39.294Z,5.80
2019-02-22T21:30:09.867Z,5.80
2019-02-22T21:32:39.381Z,5.80
2019-02-22T21:35:10.404Z,5.80
2019-02-22T21:37:40.935Z,5.80
2019-02-22T21:40:10.667Z,5.80
2019-02-22T21:42:40.509Z,5.90
2019-02-22T21:45:10.279Z,5.80
2019-02-22T21:47:39.565Z,5.80
2019-02-22T21:50:10.550Z,5.80
2019-02-22T21:52:39.802Z,5.80
2019-02-22T21:55:09.440Z,5.70
2019-02-22T21:57:38.591Z,5.70
2019-02-22T22:00:13.273Z,5.60
2019-02-22T22:02:42.456Z,5.60
2019-02-22T22:05:11.577Z,5.50
2019-02-22T22:07:40.669Z,5.40
2019-02-22T22:10:09.857Z,5.40
2019-02-22T22:12:38.964Z,5.40
2019-02-22T22:15:10.585Z,5.40
2019-02-22T22:17:39.651Z,5.40
2019-02-22T22:20:08.886Z,5.30
2019-02-22T22:22:38.405Z,5.30
2019-02-22T22:25:08.293Z,5.20
2019-02-22T22:27:38.072Z,5.20
2019-02-22T22:30:08.058Z,5.10
2019-02-22T22:32:37.497Z,5.10
2019-02-22T22:35:07.132Z,5.00
2019-02-22T22:37:36.290Z,5.00
2019-02-22T22:40:05.480Z,4.90
2019-02-22T22:42:34.894Z,4.80
2019-02-22T22:45:06.011Z,4.80
2019-02-22T22:47:34.776Z,4.70
2019-02-22T22:50:03.985Z,4.70
2019-02-22T22:52:33.160Z,4.70
2019-02-22T22:55:02.266Z,4.70
2019-02-22T22:57:31.729Z,4.60
2019-02-22T23:00:01.126Z,4.60
2019-02-22T23:02:30.486Z,4.60
2019-02-22T23:04:59.588Z,4.60
2019-02-22T23:07:29.213Z,4.60
2019-02-22T23:09:58.325Z,4.60
2019-02-22T23:12:27.831Z,4.50
2019-02-22T23:14:57.989Z,4.50
2019-02-22T23:17:27.198Z,4.50
2019-02-22T23:19:56.270Z,4.40
2019-02-22T23:22:25.378Z,4.40
2019-02-22T23:24:54.597Z,4.40
2019-02-22T23:27:24.094Z,4.40
2019-02-22T23:29:53.493Z,4.40
2019-02-22T23:32:22.627Z,4.30
2019-02-22T23:34:51.730Z,4.40
2019-02-22T23:37:20.848Z,4.30
2019-02-22T23:39:50.376Z,4.30
2019-02-22T23:42:19.509Z,4.20
2019-02-22T23:44:49.011Z,4.20
2019-02-22T23:47:18.108Z,4.20
2019-02-22T23:49:47.436Z,4.20
2019-02-22T23:52:16.570Z,4.20
2019-02-22T23:54:45.686Z,4.20
2019-02-22T23:57:15.053Z,4.20
2019-02-22T23:59:44.475Z,4.10
